createdAt,value
2023-03-21T00:04:51.230Z,9.90
2023-03-21T00:10:04.823Z,9.90
2023-03-21T00:15:10.380Z,9.90
2023-03-21T00:20:15.997Z,9.90
2023-03-21T00:25:19.381Z,9.90
2023-03-21T00:30:22.598Z,9.90
2023-03-21T00:35:57.804Z,9.80
2023-03-21T00:40:51.607Z,9.80
2023-03-21T00:45:55.068Z,9.80
2023-03-21T00:51:00.608Z,9.80
2023-03-21T00:56:03.789Z,9.70
2023-03-21T01:01:09.518Z,9.70
2023-03-21T01:06:19.218Z,9.40
2023-03-21T01:11:24.060Z,9.10
2023-03-21T01:16:27.676Z,9.00
2023-03-21T01:21:32.835Z,8.80
2023-03-21T01:26:37.479Z,8.50
2023-03-21T01:31:41.366Z,8.30
2023-03-21T01:36:46.171Z,8.20
2023-03-21T01:41:54.039Z,8.10
2023-03-21T01:47:10.935Z,8.10
2023-03-21T01:52:37.031Z,8.10
2023-03-21T01:58:04.363Z,8.20
2023-03-21T02:03:29.461Z,8.30
2023-03-21T02:08:49.082Z,8.30
2023-03-21T02:14:01.125Z,8.40
2023-03-21T02:20:00.471Z,8.50
2023-03-21T02:25:39.978Z,8.60
2023-03-21T02:31:09.696Z,8.60
2023-03-21T02:36:28.065Z,8.70
2023-03-21T02:41:40.341Z,8.70
2023-03-21T02:46:56.374Z,8.60
2023-03-21T02:52:15.556Z,8.70
2023-03-21T02:57:33.837Z,8.70
2023-03-21T03:02:44.057Z,8.80
2023-03-21T03:08:07.788Z,8.80
2023-03-21T03:13:22.561Z,8.80
2023-03-21T03:18:30.764Z,8.80
2023-03-21T03:23:44.086Z,8.80
2023-03-21T03:28:53.841Z,8.80
2023-03-21T03:34:02.292Z,8.90
2023-03-21T03:39:10.704Z,8.90
2023-03-21T03:44:19.147Z,8.90
2023-03-21T03:49:37.635Z,9.00
2023-03-21T03:54:44.779Z,9.00
2023-03-21T03:59:50.239Z,9.00
2023-03-21T04:05:04.831Z,9.00
2023-03-21T04:10:09.252Z,8.90
2023-03-21T04:15:20.767Z,8.90
2023-03-21T04:20:43.397Z,8.90
2023-03-21T04:25:56.429Z,8.80
2023-03-21T04:31:24.975Z,8.90
2023-03-21T04:36:39.510Z,8.90
2023-03-21T04:41:47.407Z,8.90
2023-03-21T04:46:52.200Z,9.00
2023-03-21T04:51:56.317Z,9.00
2023-03-21T04:57:00.293Z,9.00
2023-03-21T05:02:06.021Z,9.00
2023-03-21T05:07:10.030Z,9.00
2023-03-21T05:12:13.714Z,9.00
2023-03-21T05:17:23.629Z,9.10
2023-03-21T05:22:29.390Z,9.10
2023-03-21T05:27:37.466Z,9.10
2023-03-21T05:32:49.225Z,9.20
2023-03-21T05:37:53.561Z,9.20
2023-03-21T05:42:59.475Z,9.30
2023-03-21T05:48:04.604Z,9.30
2023-03-21T05:53:14.163Z,9.40
2023-03-21T05:58:18.980Z,9.50
2023-03-21T06:03:28.195Z,9.60
2023-03-21T06:08:44.377Z,9.70
2023-03-21T06:13:48.395Z,9.70
2023-03-21T06:18:53.843Z,9.80
2023-03-21T06:24:15.417Z,9.80
2023-03-21T06:29:19.138Z,10.00
2023-03-21T06:34:27.482Z,10.40
2023-03-21T06:39:31.510Z,10.50
2023-03-21T06:44:35.397Z,10.70
2023-03-21T06:49:45.076Z,10.80
2023-03-21T06:54:51.295Z,10.80
2023-03-21T06:59:55.094Z,10.90
2023-03-21T07:05:01.873Z,10.90
2023-03-21T07:10:08.240Z,10.90
2023-03-21T07:15:21.484Z,11.00
2023-03-21T07:20:27.779Z,11.20
2023-03-21T07:25:31.782Z,11.30
2023-03-21T07:30:37.129Z,11.40
2023-03-21T07:35:42.032Z,11.40
2023-03-21T07:40:46.549Z,11.60
2023-03-21T07:45:51.949Z,12.10
2023-03-21T07:50:56.888Z,12.50
2023-03-21T07:56:00.522Z,12.70
2023-03-21T08:01:04.134Z,13.00
2023-03-21T08:06:10.503Z,13.00
2023-03-21T08:11:14.783Z,13.00
2023-03-21T08:16:18.463Z,13.00
2023-03-21T08:21:23.535Z,13.30
2023-03-21T08:26:26.898Z,13.60
2023-03-21T08:31:30.710Z,13.80
2023-03-21T08:36:37.396Z,14.30
2023-03-21T08:41:41.117Z,14.50
2023-03-21T08:46:44.836Z,14.30
2023-03-21T08:51:50.031Z,14.30
2023-03-21T08:56:53.579Z,14.60
2023-03-21T09:01:57.550Z,14.80
2023-03-21T09:07:05.652Z,14.90
2023-03-21T09:12:09.348Z,15.00
2023-03-21T09:17:13.183Z,15.20
2023-03-21T09:22:19.248Z,15.00
2023-03-21T09:27:23.486Z,15.00
2023-03-21T09:32:27.678Z,15.20
2023-03-21T09:37:33.716Z,15.30
2023-03-21T09:42:46.353Z,15.90
2023-03-21T09:47:54.536Z,16.20
2023-03-21T09:53:02.212Z,15.80
2023-03-21T09:58:15.758Z,16.20
2023-03-21T10:03:25.072Z,16.60
2023-03-21T10:08:34.620Z,16.70
2023-03-21T10:13:44.138Z,16.40
2023-03-21T10:18:49.749Z,16.50
2023-03-21T10:23:57.082Z,16.70
2023-03-21T10:29:04.794Z,16.70
2023-03-21T10:34:15.391Z,16.60
2023-03-21T10:39:28.519Z,16.60
2023-03-21T10:44:34.102Z,16.60
2023-03-21T10:50:05.788Z,16.60
2023-03-21T10:55:21.935Z,16.70
2023-03-21T11:00:29.521Z,17.00
2023-03-21T11:05:37.871Z,16.90
2023-03-21T11:10:56.626Z,17.00
2023-03-21T11:16:08.061Z,17.50
2023-03-21T11:21:14.465Z,17.90
2023-03-21T11:26:24.586Z,18.20
2023-03-21T11:31:40.352Z,17.80
2023-03-21T11:36:43.996Z,17.40
2023-03-21T11:41:52.443Z,17.30
2023-03-21T11:46:56.510Z,17.50
2023-03-21T11:52:16.548Z,17.80
2023-03-21T11:57:27.028Z,18.10
2023-03-21T12:02:55.631Z,18.40
2023-03-21T12:08:07.583Z,18.30
2023-03-21T12:13:42.697Z,18.00
2023-03-21T12:19:09.841Z,18.20
2023-03-21T12:24:20.246Z,18.20
2023-03-21T12:29:37.896Z,18.30
2023-03-21T12:35:10.947Z,18.80
2023-03-21T12:40:22.981Z,19.10
2023-03-21T12:45:45.829Z,19.30
2023-03-21T12:50:53.765Z,19.20
2023-03-21T12:56:01.507Z,19.30
2023-03-21T13:01:08.973Z,19.20
2023-03-21T13:06:15.238Z,19.30
2023-03-21T13:11:23.352Z,19.40
2023-03-21T13:16:34.582Z,19.30
2023-03-21T13:21:51.535Z,19.30
2023-03-21T13:27:02.897Z,19.40
2023-03-21T13:32:18.560Z,19.10
2023-03-21T13:37:22.590Z,18.90
2023-03-21T13:42:33.461Z,19.10
2023-03-21T13:47:41.798Z,19.40
2023-03-21T13:53:27.323Z,19.50
2023-03-21T13:58:35.888Z,19.50
2023-03-21T14:03:41.090Z,19.30
2023-03-21T14:08:45.830Z,19.20
2023-03-21T14:13:51.718Z,19.10
2023-03-21T14:18:58.318Z,19.20
2023-03-21T14:24:04.322Z,19.20
2023-03-21T14:29:24.705Z,19.00
2023-03-21T14:34:33.140Z,18.90
2023-03-21T14:39:36.628Z,18.90
2023-03-21T14:44:53.869Z,18.80
2023-03-21T14:50:01.087Z,18.50
2023-03-21T14:55:14.861Z,18.30
2023-03-21T15:00:26.382Z,18.30
2023-03-21T15:05:33.728Z,18.40
2023-03-21T15:10:38.514Z,18.50
2023-03-21T15:15:42.995Z,18.40
2023-03-21T15:20:49.541Z,18.50
2023-03-21T15:25:53.793Z,18.40
2023-03-21T15:30:57.283Z,18.30
2023-03-21T15:36:02.341Z,18.20
2023-03-21T15:41:17.184Z,18.20
2023-03-21T15:46:35.919Z,18.10
2023-03-21T15:51:42.733Z,18.10
2023-03-21T15:56:51.970Z,18.00
2023-03-21T16:01:55.844Z,17.90
2023-03-21T16:07:03.805Z,17.80
2023-03-21T16:12:12.555Z,17.60
2023-03-21T16:17:27.533Z,17.30
2023-03-21T16:22:35.326Z,17.10
2023-03-21T16:27:38.965Z,16.90
2023-03-21T16:32:42.453Z,16.80
2023-03-21T16:37:48.595Z,16.60
2023-03-21T16:42:52.187Z,16.60
2023-03-21T16:47:55.766Z,16.50
2023-03-21T16:53:01.792Z,16.40
2023-03-21T16:58:06.191Z,16.20
2023-03-21T17:03:18.419Z,16.00
2023-03-21T17:08:23.664Z,16.00
2023-03-21T17:13:27.188Z,15.90
2023-03-21T17:18:31.288Z,15.90
2023-03-21T17:23:36.239Z,15.80
2023-03-21T17:28:40.549Z,15.80
2023-03-21T17:33:44.414Z,15.60
2023-03-21T17:38:49.996Z,15.60
2023-03-21T17:43:53.555Z,15.50
2023-03-21T17:48:57.239Z,15.30
2023-03-21T17:54:02.222Z,15.10
2023-03-21T17:59:08.298Z,15.00
2023-03-21T18:04:12.144Z,14.80
2023-03-21T18:09:21.545Z,14.40
2023-03-21T18:14:28.735Z,14.20
2023-03-21T18:19:34.521Z,14.00
2023-03-21T18:24:39.260Z,13.90
2023-03-21T18:30:22.198Z,13.70
2023-03-21T18:35:06.894Z,13.40
2023-03-21T18:40:13.909Z,13.20
2023-03-21T18:45:18.228Z,13.20
2023-03-21T18:50:21.917Z,12.80
2023-03-21T18:55:44.799Z,12.70
2023-03-21T19:00:50.325Z,12.60
2023-03-21T19:05:53.671Z,12.60
2023-03-21T19:11:00.133Z,12.60
2023-03-21T19:16:10.935Z,12.50
2023-03-21T19:21:14.626Z,12.50
2023-03-21T19:26:19.193Z,12.40
2023-03-21T19:31:24.510Z,12.30
2023-03-21T19:36:28.248Z,12.30
2023-03-21T19:41:33.404Z,12.30
2023-03-21T19:46:36.783Z,12.30
2023-03-21T19:51:40.397Z,12.10
2023-03-21T19:56:47.471Z,12.00
2023-03-21T20:01:56.490Z,11.90
2023-03-21T20:07:01.837Z,11.80
2023-03-21T20:12:07.514Z,11.70
2023-03-21T20:17:11.149Z,11.70
2023-03-21T20:22:24.498Z,11.60
2023-03-21T20:27:33.110Z,11.60
2023-03-21T20:32:37.228Z,11.50
2023-03-21T20:37:41.958Z,11.50
2023-03-21T20:42:48.773Z,11.50
2023-03-21T20:47:52.393Z,11.40
2023-03-21T20:53:06.386Z,11.20
2023-03-21T20:58:36.598Z,11.20
2023-03-21T21:03:39.467Z,11.20
2023-03-21T21:08:43.090Z,11.20
2023-03-21T21:13:48.139Z,11.10
2023-03-21T21:18:51.320Z,11.10
2023-03-21T21:23:54.619Z,11.10
2023-03-21T21:29:00.404Z,11.10
2023-03-21T21:34:05.827Z,11.10
2023-03-21T21:39:09.322Z,11.10
2023-03-21T21:44:15.179Z,11.00
2023-03-21T21:49:18.257Z,11.00
2023-03-21T21:54:21.608Z,11.00
2023-03-21T21:59:26.340Z,11.00
2023-03-21T22:04:31.031Z,10.90
2023-03-21T22:09:34.750Z,10.90
2023-03-21T22:14:40.943Z,10.90
2023-03-21T22:19:52.715Z,10.80
2023-03-21T22:25:02.343Z,10.70
2023-03-21T22:30:09.299Z,10.70
2023-03-21T22:35:13.153Z,10.80
2023-03-21T22:40:17.912Z,10.70
2023-03-21T22:45:22.639Z,10.70
2023-03-21T22:50:26.342Z,10.60
2023-03-21T22:55:29.942Z,10.60
2023-03-21T23:00:35.019Z,10.50
2023-03-21T23:05:40.579Z,10.30
2023-03-21T23:10:45.848Z,10.20
2023-03-21T23:15:51.024Z,10.10
2023-03-21T23:20:58.340Z,10.00
2023-03-21T23:26:01.686Z,9.90
2023-03-21T23:31:11.743Z,9.90
2023-03-21T23:36:16.697Z,9.80
2023-03-21T23:41:21.499Z,9.80
2023-03-21T23:46:26.313Z,9.70
2023-03-21T23:51:29.577Z,9.60
2023-03-21T23:56:32.841Z,9.60
